sensor_id;sensor_type;location;lat;lon;timestamp;temperature;humidity
16958;DHT22;8595;52.542;11.974;2023-03-14T00:01:19;10.80;99.90
16958;DHT22;8595;52.542;11.974;2023-03-14T00:03:46;10.80;99.90
16958;DHT22;8595;52.542;11.974;2023-03-14T00:06:15;10.80;99.90
16958;DHT22;8595;52.542;11.974;2023-03-14T00:08:43;10.70;99.90
16958;DHT22;8595;52.542;11.974;2023-03-14T00:11:11;10.70;99.90
16958;DHT22;8595;52.542;11.974;2023-03-14T00:13:38;10.70;99.90
16958;DHT22;8595;52.542;11.974;2023-03-14T00:16:06;10.60;99.90
16958;DHT22;8595;52.542;11.974;2023-03-14T00:18:34;10.60;99.90
16958;DHT22;8595;52.542;11.974;2023-03-14T00:21:02;10.60;99.90
16958;DHT22;8595;52.542;11.974;2023-03-14T00:23:31;10.60;99.90
16958;DHT22;8595;52.542;11.974;2023-03-14T00:25:59;10.60;99.90
16958;DHT22;8595;52.542;11.974;2023-03-14T00:28:26;10.60;99.90
16958;DHT22;8595;52.542;11.974;2023-03-14T00:30:53;10.50;99.90
16958;DHT22;8595;52.542;11.974;2023-03-14T00:33:20;10.40;99.90
16958;DHT22;8595;52.542;11.974;2023-03-14T00:35:52;10.50;99.90
16958;DHT22;8595;52.542;11.974;2023-03-14T00:38:19;10.70;99.90
16958;DHT22;8595;52.542;11.974;2023-03-14T00:40:48;10.80;99.90
16958;DHT22;8595;52.542;11.974;2023-03-14T00:43:14;10.90;99.90
16958;DHT22;8595;52.542;11.974;2023-03-14T00:45:41;10.90;99.90
16958;DHT22;8595;52.542;11.974;2023-03-14T00:48:07;10.90;99.90
16958;DHT22;8595;52.542;11.974;2023-03-14T00:50:34;11.00;99.90
16958;DHT22;8595;52.542;11.974;2023-03-14T00:53:01;11.00;99.90
16958;DHT22;8595;52.542;11.974;2023-03-14T00:55:27;11.00;99.90
16958;DHT22;8595;52.542;11.974;2023-03-14T00:57:55;11.00;99.90
16958;DHT22;8595;52.542;11.974;2023-03-14T01:00:22;11.00;99.90
16958;DHT22;8595;52.542;11.974;2023-03-14T01:02:49;11.00;99.90
16958;DHT22;8595;52.542;11.974;2023-03-14T01:05:16;11.00;99.90
16958;DHT22;8595;52.542;11.974;2023-03-14T01:07:43;11.00;99.90
16958;DHT22;8595;52.542;11.974;2023-03-14T01:10:10;11.10;99.90
16958;DHT22;8595;52.542;11.974;2023-03-14T01:12:37;11.10;99.90
16958;DHT22;8595;52.542;11.974;2023-03-14T01:15:06;11.10;99.90
16958;DHT22;8595;52.542;11.974;2023-03-14T01:17:33;11.10;99.90
16958;DHT22;8595;52.542;11.974;2023-03-14T01:20:00;11.20;99.90
16958;DHT22;8595;52.542;11.974;2023-03-14T01:22:29;11.20;99.90
16958;DHT22;8595;52.542;11.974;2023-03-14T01:24:56;11.20;99.90
16958;DHT22;8595;52.542;11.974;2023-03-14T01:27:23;11.10;99.90
16958;DHT22;8595;52.542;11.974;2023-03-14T01:29:50;11.20;99.90
16958;DHT22;8595;52.542;11.974;2023-03-14T01:32:18;11.20;99.90
16958;DHT22;8595;52.542;11.974;2023-03-14T01:34:45;11.20;99.90
16958;DHT22;8595;52.542;11.974;2023-03-14T01:37:11;11.20;99.90
16958;DHT22;8595;52.542;11.974;2023-03-14T01:39:38;11.20;99.90
16958;DHT22;8595;52.542;11.974;2023-03-14T01:42:05;11.30;99.90
16958;DHT22;8595;52.542;11.974;2023-03-14T01:44:47;11.30;99.90
16958;DHT22;8595;52.542;11.974;2023-03-14T01:47:14;11.30;99.90
16958;DHT22;8595;52.542;11.974;2023-03-14T01:49:43;11.40;99.90
16958;DHT22;8595;52.542;11.974;2023-03-14T01:52:13;11.40;99.90
16958;DHT22;8595;52.542;11.974;2023-03-14T01:54:44;11.40;99.90
16958;DHT22;8595;52.542;11.974;2023-03-14T01:57:14;11.30;99.90
16958;DHT22;8595;52.542;11.974;2023-03-14T01:59:46;11.30;99.90
16958;DHT22;8595;52.542;11.974;2023-03-14T02:02:16;11.20;99.90
16958;DHT22;8595;52.542;11.974;2023-03-14T02:04:44;11.10;99.90
16958;DHT22;8595;52.542;11.974;2023-03-14T02:07:15;11.00;99.90
16958;DHT22;8595;52.542;11.974;2023-03-14T02:09:42;10.90;99.90
16958;DHT22;8595;52.542;11.974;2023-03-14T02:12:10;10.70;99.90
16958;DHT22;8595;52.542;11.974;2023-03-14T02:14:37;10.50;99.90
16958;DHT22;8595;52.542;11.974;2023-03-14T02:17:06;10.40;99.90
16958;DHT22;8595;52.542;11.974;2023-03-14T02:20:00;10.40;99.90
16958;DHT22;8595;52.542;11.974;2023-03-14T02:22:31;10.50;99.90
16958;DHT22;8595;52.542;11.974;2023-03-14T02:25:04;10.50;99.90
16958;DHT22;8595;52.542;11.974;2023-03-14T02:27:34;10.60;99.90
16958;DHT22;8595;52.542;11.974;2023-03-14T02:30:04;10.60;99.90
16958;DHT22;8595;52.542;11.974;2023-03-14T02:32:33;10.60;99.90
16958;DHT22;8595;52.542;11.974;2023-03-14T02:35:03;10.60;99.90
16958;DHT22;8595;52.542;11.974;2023-03-14T02:37:34;10.70;99.90
16958;DHT22;8595;52.542;11.974;2023-03-14T02:40:01;10.80;99.90
16958;DHT22;8595;52.542;11.974;2023-03-14T02:42:29;11.00;99.90
16958;DHT22;8595;52.542;11.974;2023-03-14T02:45:25;11.10;99.90
16958;DHT22;8595;52.542;11.974;2023-03-14T02:47:52;11.10;99.90
16958;DHT22;8595;52.542;11.974;2023-03-14T02:50:22;11.20;99.90
16958;DHT22;8595;52.542;11.974;2023-03-14T02:52:50;11.20;99.90
16958;DHT22;8595;52.542;11.974;2023-03-14T02:55:20;11.30;99.90
16958;DHT22;8595;52.542;11.974;2023-03-14T02:57:47;11.40;99.90
16958;DHT22;8595;52.542;11.974;2023-03-14T03:00:15;11.30;99.90
16958;DHT22;8595;52.542;11.974;2023-03-14T03:02:42;11.40;99.90
16958;DHT22;8595;52.542;11.974;2023-03-14T03:05:09;11.40;99.90
16958;DHT22;8595;52.542;11.974;2023-03-14T03:07:35;11.40;99.90
16958;DHT22;8595;52.542;11.974;2023-03-14T03:10:03;11.30;99.90
16958;DHT22;8595;52.542;11.974;2023-03-14T03:12:29;11.30;99.90
16958;DHT22;8595;52.542;11.974;2023-03-14T03:14:56;11.30;99.90
16958;DHT22;8595;52.542;11.974;2023-03-14T03:17:24;11.30;99.90
16958;DHT22;8595;52.542;11.974;2023-03-14T03:19:51;11.30;99.90
16958;DHT22;8595;52.542;11.974;2023-03-14T03:22:17;11.30;99.90
16958;DHT22;8595;52.542;11.974;2023-03-14T03:24:44;11.40;99.90
16958;DHT22;8595;52.542;11.974;2023-03-14T03:27:10;11.30;99.90
16958;DHT22;8595;52.542;11.974;2023-03-14T03:29:37;11.30;99.90
16958;DHT22;8595;52.542;11.974;2023-03-14T03:32:04;11.30;99.90
16958;DHT22;8595;52.542;11.974;2023-03-14T03:34:32;11.30;99.90
16958;DHT22;8595;52.542;11.974;2023-03-14T03:36:59;11.30;99.90
16958;DHT22;8595;52.542;11.974;2023-03-14T03:39:25;11.30;99.90
16958;DHT22;8595;52.542;11.974;2023-03-14T03:41:52;11.30;99.90
16958;DHT22;8595;52.542;11.974;2023-03-14T03:44:20;11.30;99.90
16958;DHT22;8595;52.542;11.974;2023-03-14T03:46:47;11.30;99.90
16958;DHT22;8595;52.542;11.974;2023-03-14T03:49:13;11.20;99.90
16958;DHT22;8595;52.542;11.974;2023-03-14T03:51:41;11.20;99.90
16958;DHT22;8595;52.542;11.974;2023-03-14T03:54:08;11.20;99.90
16958;DHT22;8595;52.542;11.974;2023-03-14T03:56:34;11.20;99.90
16958;DHT22;8595;52.542;11.974;2023-03-14T03:59:01;11.30;99.90
16958;DHT22;8595;52.542;11.974;2023-03-14T04:01:28;11.20;99.90
16958;DHT22;8595;52.542;11.974;2023-03-14T04:03:55;11.30;99.90
16958;DHT22;8595;52.542;11.974;2023-03-14T04:06:21;11.30;99.90
16958;DHT22;8595;52.542;11.974;2023-03-14T04:08:49;11.40;99.90
16958;DHT22;8595;52.542;11.974;2023-03-14T04:11:16;11.50;99.90
16958;DHT22;8595;52.542;11.974;2023-03-14T04:13:43;11.40;99.90
16958;DHT22;8595;52.542;11.974;2023-03-14T04:16:14;11.40;99.90
16958;DHT22;8595;52.542;11.974;2023-03-14T04:18:41;11.40;99.90
16958;DHT22;8595;52.542;11.974;2023-03-14T04:21:08;11.40;99.90
16958;DHT22;8595;52.542;11.974;2023-03-14T04:23:34;11.40;99.90
16958;DHT22;8595;52.542;11.974;2023-03-14T04:26:03;11.40;99.90
16958;DHT22;8595;52.542;11.974;2023-03-14T04:28:31;11.30;99.90
16958;DHT22;8595;52.542;11.974;2023-03-14T04:30:58;11.30;99.90
16958;DHT22;8595;52.542;11.974;2023-03-14T04:33:24;11.30;99.90
16958;DHT22;8595;52.542;11.974;2023-03-14T04:35:54;11.30;99.90
16958;DHT22;8595;52.542;11.974;2023-03-14T04:38:20;11.20;99.90
16958;DHT22;8595;52.542;11.974;2023-03-14T04:40:47;11.20;99.90
16958;DHT22;8595;52.542;11.974;2023-03-14T04:43:15;11.20;99.90
16958;DHT22;8595;52.542;11.974;2023-03-14T04:45:42;11.20;99.90
16958;DHT22;8595;52.542;11.974;2023-03-14T04:48:09;11.20;99.90
16958;DHT22;8595;52.542;11.974;2023-03-14T04:50:36;11.20;99.90
16958;DHT22;8595;52.542;11.974;2023-03-14T04:53:02;11.20;99.90
16958;DHT22;8595;52.542;11.974;2023-03-14T04:55:29;11.20;99.90
16958;DHT22;8595;52.542;11.974;2023-03-14T04:57:57;11.20;99.90
16958;DHT22;8595;52.542;11.974;2023-03-14T05:00:25;11.20;99.90
16958;DHT22;8595;52.542;11.974;2023-03-14T05:02:52;11.20;99.90
16958;DHT22;8595;52.542;11.974;2023-03-14T05:05:19;11.20;99.90
16958;DHT22;8595;52.542;11.974;2023-03-14T05:07:45;11.10;99.90
16958;DHT22;8595;52.542;11.974;2023-03-14T05:10:12;11.10;99.90
16958;DHT22;8595;52.542;11.974;2023-03-14T05:12:39;11.10;99.90
16958;DHT22;8595;52.542;11.974;2023-03-14T05:15:07;11.10;99.90
16958;DHT22;8595;52.542;11.974;2023-03-14T05:17:35;11.10;99.90
16958;DHT22;8595;52.542;11.974;2023-03-14T05:20:02;11.10;99.90
16958;DHT22;8595;52.542;11.974;2023-03-14T05:22:32;11.20;99.90
16958;DHT22;8595;52.542;11.974;2023-03-14T05:25:00;11.10;99.90
16958;DHT22;8595;52.542;11.974;2023-03-14T05:27:26;11.20;99.90
16958;DHT22;8595;52.542;11.974;2023-03-14T05:29:53;11.10;99.90
16958;DHT22;8595;52.542;11.974;2023-03-14T05:32:19;11.00;99.90
16958;DHT22;8595;52.542;11.974;2023-03-14T05:34:47;11.00;99.90
16958;DHT22;8595;52.542;11.974;2023-03-14T05:37:14;11.00;99.90
16958;DHT22;8595;52.542;11.974;2023-03-14T05:39:41;10.80;99.90
16958;DHT22;8595;52.542;11.974;2023-03-14T05:42:08;10.80;99.90
16958;DHT22;8595;52.542;11.974;2023-03-14T05:44:34;10.90;99.90
16958;DHT22;8595;52.542;11.974;2023-03-14T05:47:01;10.80;99.90
16958;DHT22;8595;52.542;11.974;2023-03-14T05:49:27;10.90;99.90
16958;DHT22;8595;52.542;11.974;2023-03-14T05:51:55;10.90;99.90
16958;DHT22;8595;52.542;11.974;2023-03-14T05:54:22;10.80;99.90
16958;DHT22;8595;52.542;11.974;2023-03-14T05:56:49;10.90;99.90
16958;DHT22;8595;52.542;11.974;2023-03-14T05:59:15;10.90;99.90
16958;DHT22;8595;52.542;11.974;2023-03-14T06:01:42;11.00;99.90
16958;DHT22;8595;52.542;11.974;2023-03-14T06:04:10;11.00;99.90
16958;DHT22;8595;52.542;11.974;2023-03-14T06:06:36;11.00;99.90
16958;DHT22;8595;52.542;11.974;2023-03-14T06:09:05;11.10;99.90
16958;DHT22;8595;52.542;11.974;2023-03-14T06:11:31;11.20;99.90
16958;DHT22;8595;52.542;11.974;2023-03-14T06:13:58;11.20;99.90
16958;DHT22;8595;52.542;11.974;2023-03-14T06:16:25;11.20;99.90
16958;DHT22;8595;52.542;11.974;2023-03-14T06:18:51;11.20;99.90
16958;DHT22;8595;52.542;11.974;2023-03-14T06:21:18;11.20;99.90
16958;DHT22;8595;52.542;11.974;2023-03-14T06:23:45;11.20;99.90
16958;DHT22;8595;52.542;11.974;2023-03-14T06:26:13;11.20;99.90
16958;DHT22;8595;52.542;11.974;2023-03-14T06:28:40;11.20;99.90
16958;DHT22;8595;52.542;11.974;2023-03-14T06:31:06;11.30;99.90
16958;DHT22;8595;52.542;11.974;2023-03-14T06:33:33;11.30;99.90
16958;DHT22;8595;52.542;11.974;2023-03-14T06:36:00;11.30;99.90
16958;DHT22;8595;52.542;11.974;2023-03-14T06:38:26;11.30;99.90
16958;DHT22;8595;52.542;11.974;2023-03-14T06:40:53;11.50;99.90
16958;DHT22;8595;52.542;11.974;2023-03-14T06:43:21;11.40;99.90
16958;DHT22;8595;52.542;11.974;2023-03-14T06:45:47;11.50;99.90
16958;DHT22;8595;52.542;11.974;2023-03-14T06:48:14;11.50;99.90
16958;DHT22;8595;52.542;11.974;2023-03-14T06:50:41;11.50;99.90
16958;DHT22;8595;52.542;11.974;2023-03-14T06:53:08;11.60;99.90
16958;DHT22;8595;52.542;11.974;2023-03-14T06:55:35;11.70;99.90
16958;DHT22;8595;52.542;11.974;2023-03-14T06:58:01;11.70;99.90
16958;DHT22;8595;52.542;11.974;2023-03-14T07:00:29;11.70;99.90
16958;DHT22;8595;52.542;11.974;2023-03-14T07:02:56;11.70;99.90
16958;DHT22;8595;52.542;11.974;2023-03-14T07:05:23;11.70;99.90
16958;DHT22;8595;52.542;11.974;2023-03-14T07:07:49;11.60;99.90
16958;DHT22;8595;52.542;11.974;2023-03-14T07:10:16;11.60;99.90
16958;DHT22;8595;52.542;11.974;2023-03-14T07:12:43;11.70;99.90
16958;DHT22;8595;52.542;11.974;2023-03-14T07:15:10;11.90;99.90
16958;DHT22;8595;52.542;11.974;2023-03-14T07:17:38;12.00;99.90
16958;DHT22;8595;52.542;11.974;2023-03-14T07:20:06;12.00;99.90
16958;DHT22;8595;52.542;11.974;2023-03-14T07:22:34;12.00;99.90
16958;DHT22;8595;52.542;11.974;2023-03-14T07:25:01;12.00;99.90
16958;DHT22;8595;52.542;11.974;2023-03-14T07:27:28;12.00;99.90
16958;DHT22;8595;52.542;11.974;2023-03-14T07:29:54;12.00;99.90
16958;DHT22;8595;52.542;11.974;2023-03-14T07:32:21;12.10;99.90
16958;DHT22;8595;52.542;11.974;2023-03-14T07:34:49;12.00;99.90
16958;DHT22;8595;52.542;11.974;2023-03-14T07:37:15;12.00;99.90
16958;DHT22;8595;52.542;11.974;2023-03-14T07:39:42;12.10;99.90
16958;DHT22;8595;52.542;11.974;2023-03-14T07:42:09;12.00;99.90
16958;DHT22;8595;52.542;11.974;2023-03-14T07:44:36;11.90;99.90
16958;DHT22;8595;52.542;11.974;2023-03-14T07:47:03;12.00;99.90
16958;DHT22;8595;52.542;11.974;2023-03-14T07:49:29;12.00;99.90
16958;DHT22;8595;52.542;11.974;2023-03-14T07:51:57;12.20;99.90
16958;DHT22;8595;52.542;11.974;2023-03-14T07:54:24;12.30;99.90
16958;DHT22;8595;52.542;11.974;2023-03-14T07:56:51;12.30;99.90
16958;DHT22;8595;52.542;11.974;2023-03-14T07:59:18;13.30;99.90
16958;DHT22;8595;52.542;11.974;2023-03-14T08:01:45;14.00;99.90
16958;DHT22;8595;52.542;11.974;2023-03-14T08:04:11;14.50;99.90
16958;DHT22;8595;52.542;11.974;2023-03-14T08:06:38;14.90;99.90
16958;DHT22;8595;52.542;11.974;2023-03-14T08:09:06;15.00;99.90
16958;DHT22;8595;52.542;11.974;2023-03-14T08:11:33;15.50;99.90
16958;DHT22;8595;52.542;11.974;2023-03-14T08:13:59;15.40;99.90
16958;DHT22;8595;52.542;11.974;2023-03-14T08:16:26;15.70;99.90
16958;DHT22;8595;52.542;11.974;2023-03-14T08:18:53;16.10;99.90
16958;DHT22;8595;52.542;11.974;2023-03-14T08:21:20;16.00;99.90
16958;DHT22;8595;52.542;11.974;2023-03-14T08:23:46;16.10;99.90
16958;DHT22;8595;52.542;11.974;2023-03-14T08:26:14;16.00;99.90
16958;DHT22;8595;52.542;11.974;2023-03-14T08:28:41;15.90;99.90
16958;DHT22;8595;52.542;11.974;2023-03-14T08:31:07;16.10;99.90
16958;DHT22;8595;52.542;11.974;2023-03-14T08:33:34;16.30;99.90
16958;DHT22;8595;52.542;11.974;2023-03-14T08:36:01;16.10;99.90
16958;DHT22;8595;52.542;11.974;2023-03-14T08:38:28;16.40;99.90
16958;DHT22;8595;52.542;11.974;2023-03-14T08:40:57;16.30;99.90
16958;DHT22;8595;52.542;11.974;2023-03-14T08:43:26;15.90;99.90
16958;DHT22;8595;52.542;11.974;2023-03-14T08:45:53;15.50;99.90
16958;DHT22;8595;52.542;11.974;2023-03-14T08:48:19;15.20;99.90
16958;DHT22;8595;52.542;11.974;2023-03-14T08:50:46;15.10;99.90
16958;DHT22;8595;52.542;11.974;2023-03-14T08:53:13;15.40;99.90
16958;DHT22;8595;52.542;11.974;2023-03-14T08:55:40;15.40;99.90
16958;DHT22;8595;52.542;11.974;2023-03-14T08:58:06;15.00;99.90
16958;DHT22;8595;52.542;11.974;2023-03-14T09:00:35;14.70;99.90
16958;DHT22;8595;52.542;11.974;2023-03-14T09:03:01;14.50;99.90
16958;DHT22;8595;52.542;11.974;2023-03-14T09:05:28;14.30;99.90
16958;DHT22;8595;52.542;11.974;2023-03-14T09:07:54;14.20;99.90
16958;DHT22;8595;52.542;11.974;2023-03-14T09:10:21;14.20;99.90
16958;DHT22;8595;52.542;11.974;2023-03-14T09:12:48;14.10;99.90
16958;DHT22;8595;52.542;11.974;2023-03-14T09:15:14;14.20;99.90
16958;DHT22;8595;52.542;11.974;2023-03-14T09:17:43;13.90;99.90
16958;DHT22;8595;52.542;11.974;2023-03-14T09:20:11;13.80;99.90
16958;DHT22;8595;52.542;11.974;2023-03-14T09:22:39;13.80;99.90
16958;DHT22;8595;52.542;11.974;2023-03-14T09:25:06;13.70;99.90
16958;DHT22;8595;52.542;11.974;2023-03-14T09:27:34;13.60;99.90
16958;DHT22;8595;52.542;11.974;2023-03-14T09:30:00;13.60;99.90
16958;DHT22;8595;52.542;11.974;2023-03-14T09:32:27;13.60;99.90
16958;DHT22;8595;52.542;11.974;2023-03-14T09:34:55;13.60;99.90
16958;DHT22;8595;52.542;11.974;2023-03-14T09:37:22;13.40;99.90
16958;DHT22;8595;52.542;11.974;2023-03-14T09:39:49;13.40;99.90
16958;DHT22;8595;52.542;11.974;2023-03-14T09:42:18;13.40;99.90
16958;DHT22;8595;52.542;11.974;2023-03-14T09:44:52;13.40;99.90
16958;DHT22;8595;52.542;11.974;2023-03-14T09:47:20;13.40;99.90
16958;DHT22;8595;52.542;11.974;2023-03-14T09:49:47;13.50;99.90
16958;DHT22;8595;52.542;11.974;2023-03-14T09:52:18;13.50;99.90
16958;DHT22;8595;52.542;11.974;2023-03-14T09:54:50;13.50;99.90
16958;DHT22;8595;52.542;11.974;2023-03-14T09:57:18;13.50;99.90
16958;DHT22;8595;52.542;11.974;2023-03-14T09:59:47;13.40;99.90
16958;DHT22;8595;52.542;11.974;2023-03-14T10:02:18;13.40;99.90
16958;DHT22;8595;52.542;11.974;2023-03-14T10:04:46;13.40;99.90
16958;DHT22;8595;52.542;11.974;2023-03-14T10:07:16;13.50;99.90
16958;DHT22;8595;52.542;11.974;2023-03-14T10:09:46;13.50;99.90
16958;DHT22;8595;52.542;11.974;2023-03-14T10:12:14;13.60;99.90
16958;DHT22;8595;52.542;11.974;2023-03-14T10:14:46;13.50;99.90
16958;DHT22;8595;52.542;11.974;2023-03-14T10:17:14;13.60;99.90
16958;DHT22;8595;52.542;11.974;2023-03-14T10:19:51;13.70;99.90
16958;DHT22;8595;52.542;11.974;2023-03-14T10:22:20;13.70;99.90
16958;DHT22;8595;52.542;11.974;2023-03-14T10:24:51;13.70;99.90
16958;DHT22;8595;52.542;11.974;2023-03-14T10:27:20;13.70;99.90
16958;DHT22;8595;52.542;11.974;2023-03-14T10:29:53;13.60;99.90
16958;DHT22;8595;52.542;11.974;2023-03-14T10:32:21;13.80;99.90
16958;DHT22;8595;52.542;11.974;2023-03-14T10:35:19;13.80;99.90
16958;DHT22;8595;52.542;11.974;2023-03-14T10:37:57;13.90;99.90
16958;DHT22;8595;52.542;11.974;2023-03-14T10:40:28;13.90;99.90
16958;DHT22;8595;52.542;11.974;2023-03-14T10:42:57;13.90;99.90
16958;DHT22;8595;52.542;11.974;2023-03-14T10:45:33;13.90;99.90
16958;DHT22;8595;52.542;11.974;2023-03-14T10:48:16;13.90;99.90
16958;DHT22;8595;52.542;11.974;2023-03-14T10:50:49;14.00;99.90
16958;DHT22;8595;52.542;11.974;2023-03-14T10:53:17;14.00;99.90
16958;DHT22;8595;52.542;11.974;2023-03-14T10:55:45;14.00;99.90
16958;DHT22;8595;52.542;11.974;2023-03-14T10:58:23;14.10;99.90
16958;DHT22;8595;52.542;11.974;2023-03-14T11:00:56;14.20;99.90
16958;DHT22;8595;52.542;11.974;2023-03-14T11:03:24;14.00;99.90
16958;DHT22;8595;52.542;11.974;2023-03-14T11:05:56;14.00;99.90
16958;DHT22;8595;52.542;11.974;2023-03-14T11:08:27;14.00;99.90
16958;DHT22;8595;52.542;11.974;2023-03-14T11:11:07;13.90;99.90
16958;DHT22;8595;52.542;11.974;2023-03-14T11:13:40;13.80;99.90
16958;DHT22;8595;52.542;11.974;2023-03-14T11:16:16;13.80;99.90
16958;DHT22;8595;52.542;11.974;2023-03-14T11:18:58;13.80;99.90
16958;DHT22;8595;52.542;11.974;2023-03-14T11:21:29;13.90;99.90
16958;DHT22;8595;52.542;11.974;2023-03-14T11:24:13;14.10;99.90
16958;DHT22;8595;52.542;11.974;2023-03-14T11:26:50;14.50;99.90
16958;DHT22;8595;52.542;11.974;2023-03-14T11:29:22;14.70;99.90
16958;DHT22;8595;52.542;11.974;2023-03-14T11:31:55;14.90;99.90
16958;DHT22;8595;52.542;11.974;2023-03-14T11:34:27;14.90;99.90
16958;DHT22;8595;52.542;11.974;2023-03-14T11:36:59;15.00;99.90
16958;DHT22;8595;52.542;11.974;2023-03-14T11:39:35;15.20;99.90
16958;DHT22;8595;52.542;11.974;2023-03-14T11:42:03;15.30;99.90
16958;DHT22;8595;52.542;11.974;2023-03-14T11:44:32;15.10;99.90
16958;DHT22;8595;52.542;11.974;2023-03-14T11:47:03;15.00;99.90
16958;DHT22;8595;52.542;11.974;2023-03-14T11:49:36;15.00;99.90
16958;DHT22;8595;52.542;11.974;2023-03-14T11:52:08;14.90;99.90
16958;DHT22;8595;52.542;11.974;2023-03-14T11:54:41;15.00;99.90
16958;DHT22;8595;52.542;11.974;2023-03-14T11:57:12;15.10;99.90
16958;DHT22;8595;52.542;11.974;2023-03-14T11:59:47;15.40;99.90
16958;DHT22;8595;52.542;11.974;2023-03-14T12:02:21;15.50;99.90
16958;DHT22;8595;52.542;11.974;2023-03-14T12:05:14;15.40;99.90
16958;DHT22;8595;52.542;11.974;2023-03-14T12:08:00;15.50;99.90
16958;DHT22;8595;52.542;11.974;2023-03-14T12:10:36;16.50;99.90
16958;DHT22;8595;52.542;11.974;2023-03-14T12:13:04;17.50;99.90
16958;DHT22;8595;52.542;11.974;2023-03-14T12:15:36;17.80;99.90
16958;DHT22;8595;52.542;11.974;2023-03-14T12:18:16;18.10;99.90
16958;DHT22;8595;52.542;11.974;2023-03-14T12:20:51;17.30;99.90
16958;DHT22;8595;52.542;11.974;2023-03-14T12:23:19;16.80;99.90
16958;DHT22;8595;52.542;11.974;2023-03-14T12:25:48;16.40;99.90
16958;DHT22;8595;52.542;11.974;2023-03-14T12:28:32;16.20;99.90
16958;DHT22;8595;52.542;11.974;2023-03-14T12:31:36;16.10;99.90
16958;DHT22;8595;52.542;11.974;2023-03-14T12:36:54;16.30;99.90
16958;DHT22;8595;52.542;11.974;2023-03-14T12:39:33;16.30;99.90
16958;DHT22;8595;52.542;11.974;2023-03-14T12:42:04;16.40;99.90
16958;DHT22;8595;52.542;11.974;2023-03-14T12:45:01;16.10;99.90
16958;DHT22;8595;52.542;11.974;2023-03-14T12:50:43;15.70;99.90
16958;DHT22;8595;52.542;11.974;2023-03-14T12:56:15;16.60;99.90
16958;DHT22;8595;52.542;11.974;2023-03-14T12:58:57;16.80;99.90
16958;DHT22;8595;52.542;11.974;2023-03-14T13:01:27;16.70;99.90
16958;DHT22;8595;52.542;11.974;2023-03-14T13:03:55;16.70;99.90
16958;DHT22;8595;52.542;11.974;2023-03-14T13:06:46;16.60;99.90
16958;DHT22;8595;52.542;11.974;2023-03-14T13:09:45;16.20;99.90
16958;DHT22;8595;52.542;11.974;2023-03-14T13:12:17;15.70;99.90
16958;DHT22;8595;52.542;11.974;2023-03-14T13:14:48;15.40;99.90
16958;DHT22;8595;52.542;11.974;2023-03-14T13:17:22;15.40;99.90
16958;DHT22;8595;52.542;11.974;2023-03-14T13:19:51;15.40;99.90
16958;DHT22;8595;52.542;11.974;2023-03-14T13:22:23;15.30;99.90
16958;DHT22;8595;52.542;11.974;2023-03-14T13:24:57;15.20;99.90
16958;DHT22;8595;52.542;11.974;2023-03-14T13:27:24;15.20;99.90
16958;DHT22;8595;52.542;11.974;2023-03-14T13:29:53;15.10;99.90
16958;DHT22;8595;52.542;11.974;2023-03-14T13:32:21;15.10;99.90
16958;DHT22;8595;52.542;11.974;2023-03-14T13:34:48;15.10;99.90
16958;DHT22;8595;52.542;11.974;2023-03-14T13:37:16;14.90;99.90
16958;DHT22;8595;52.542;11.974;2023-03-14T13:39:49;14.80;99.90
16958;DHT22;8595;52.542;11.974;2023-03-14T13:42:16;14.50;99.90
16958;DHT22;8595;52.542;11.974;2023-03-14T13:44:43;13.20;99.90
16958;DHT22;8595;52.542;11.974;2023-03-14T13:47:15;12.20;99.90
16958;DHT22;8595;52.542;11.974;2023-03-14T13:49:43;10.70;99.90
16958;DHT22;8595;52.542;11.974;2023-03-14T13:52:24;9.70;99.90
16958;DHT22;8595;52.542;11.974;2023-03-14T13:54:54;9.30;99.90
16958;DHT22;8595;52.542;11.974;2023-03-14T13:57:21;9.20;99.90
16958;DHT22;8595;52.542;11.974;2023-03-14T13:59:59;9.00;99.90
16958;DHT22;8595;52.542;11.974;2023-03-14T14:02:28;8.90;99.90
16958;DHT22;8595;52.542;11.974;2023-03-14T14:04:55;8.90;99.90
16958;DHT22;8595;52.542;11.974;2023-03-14T14:07:22;8.90;99.90
16958;DHT22;8595;52.542;11.974;2023-03-14T14:09:50;8.60;99.90
16958;DHT22;8595;52.542;11.974;2023-03-14T14:12:19;8.30;99.90
16958;DHT22;8595;52.542;11.974;2023-03-14T14:14:52;7.80;99.90
16958;DHT22;8595;52.542;11.974;2023-03-14T14:17:25;7.50;99.90
16958;DHT22;8595;52.542;11.974;2023-03-14T14:19:55;7.30;99.90
16958;DHT22;8595;52.542;11.974;2023-03-14T14:22:22;7.10;99.90
16958;DHT22;8595;52.542;11.974;2023-03-14T14:24:49;6.70;99.90
16958;DHT22;8595;52.542;11.974;2023-03-14T14:27:18;5.80;99.90
16958;DHT22;8595;52.542;11.974;2023-03-14T14:29:57;5.30;99.90
16958;DHT22;8595;52.542;11.974;2023-03-14T14:32:25;5.00;99.90
16958;DHT22;8595;52.542;11.974;2023-03-14T14:34:59;4.90;99.90
16958;DHT22;8595;52.542;11.974;2023-03-14T14:37:28;4.70;99.90
16958;DHT22;8595;52.542;11.974;2023-03-14T14:39:57;4.40;99.90
16958;DHT22;8595;52.542;11.974;2023-03-14T14:42:26;4.20;99.90
16958;DHT22;8595;52.542;11.974;2023-03-14T14:44:54;4.10;99.90
16958;DHT22;8595;52.542;11.974;2023-03-14T14:47:23;4.20;99.90
16958;DHT22;8595;52.542;11.974;2023-03-14T14:49:51;4.00;99.90
16958;DHT22;8595;52.542;11.974;2023-03-14T14:52:21;3.90;99.90
16958;DHT22;8595;52.542;11.974;2023-03-14T14:54:52;3.80;99.90
16958;DHT22;8595;52.542;11.974;2023-03-14T14:57:23;3.70;99.90
16958;DHT22;8595;52.542;11.974;2023-03-14T14:59:51;3.80;99.90
16958;DHT22;8595;52.542;11.974;2023-03-14T15:02:30;3.90;99.90
16958;DHT22;8595;52.542;11.974;2023-03-14T15:04:57;4.00;99.90
16958;DHT22;8595;52.542;11.974;2023-03-14T15:07:25;4.20;99.90
16958;DHT22;8595;52.542;11.974;2023-03-14T15:09:51;4.30;99.90
16958;DHT22;8595;52.542;11.974;2023-03-14T15:12:18;4.50;99.90
16958;DHT22;8595;52.542;11.974;2023-03-14T15:14:45;4.40;99.90
16958;DHT22;8595;52.542;11.974;2023-03-14T15:17:13;4.50;99.90
16958;DHT22;8595;52.542;11.974;2023-03-14T15:19:39;4.70;99.90
16958;DHT22;8595;52.542;11.974;2023-03-14T15:22:11;5.00;99.90
16958;DHT22;8595;52.542;11.974;2023-03-14T15:24:39;4.90;99.90
16958;DHT22;8595;52.542;11.974;2023-03-14T15:27:12;4.90;99.90
16958;DHT22;8595;52.542;11.974;2023-03-14T15:29:39;5.00;99.90
16958;DHT22;8595;52.542;11.974;2023-03-14T15:32:08;4.90;99.90
16958;DHT22;8595;52.542;11.974;2023-03-14T15:34:36;4.80;99.90
16958;DHT22;8595;52.542;11.974;2023-03-14T15:37:02;5.00;99.90
16958;DHT22;8595;52.542;11.974;2023-03-14T15:39:32;4.90;99.90
16958;DHT22;8595;52.542;11.974;2023-03-14T15:42:01;5.00;99.90
16958;DHT22;8595;52.542;11.974;2023-03-14T15:44:27;5.20;99.90
16958;DHT22;8595;52.542;11.974;2023-03-14T15:46:54;5.30;99.90
16958;DHT22;8595;52.542;11.974;2023-03-14T15:49:21;5.40;99.90
16958;DHT22;8595;52.542;11.974;2023-03-14T15:51:47;5.50;99.90
16958;DHT22;8595;52.542;11.974;2023-03-14T15:54:15;5.40;99.90